^^
Station Historical Data
Daily Summary for February 22, 2017 Units:  English    Metric   Both
« Previous Day
Next Day »
Daily Weekly Monthly Yearly Custom
  High: Low: Average:
Temperature: 53.0 °F 39.5 °F 43.8 °F
Dew Point: 40.8 °F 33.0 °F 37.5 °F
Humidity: 92% 63% 79%
Wind Speed: 6.0mph 0.0mph 1mph
Wind Gust: 12.0mph - -
Wind- - SSW
Pressure: 30.13 in 29.90 in -
Precipitation: 0.00 in    
Historical Graphs
 
 
Tabular Data for February 22, 2017
Time Temperature Dew Point Pressure Wind Wind Speed Wind Gust Humidity Rainfall Rate (Hourly) Conditions
00:00 39.6 °F 33.0 °F 30.13 in SSW 2.0 mph 8.0 mph 77% 0.00 in CLR
00:15 39.5 °F 33.2 °F 30.13 in SSW 5.0 mph 10.0 mph 78% 0.00 in CLR
00:30 39.7 °F 33.4 °F 30.12 in South 3.0 mph 9.0 mph 78% 0.00 in CLR
00:45 39.8 °F 33.5 °F 30.11 in SSW 2.0 mph 10.0 mph 78% 0.00 in CLR
01:00 39.9 °F 33.6 °F 30.11 in SSW 6.0 mph 10.0 mph 78% 0.00 in CLR
01:15 40.1 °F 33.8 °F 30.10 in SSW 3.0 mph 10.0 mph 78% 0.00 in CLR
01:30 40.4 °F 34.1 °F 30.10 in SSW 6.0 mph 12.0 mph 78% 0.00 in CLR
01:45 40.5 °F 34.2 °F 30.10 in SSW 2.0 mph 9.0 mph 78% 0.00 in CLR
02:00 40.3 °F 34.3 °F 30.09 in SSW 3.0 mph 10.0 mph 79% 0.00 in CLR
02:15 40.2 °F 34.5 °F 30.09 in SSW 3.0 mph 7.0 mph 80% 0.00 in CLR
02:30 40.1 °F 34.4 °F 30.10 in SW 1.0 mph 7.0 mph 80% 0.00 in CLR
02:45 40.0 °F 34.7 °F 30.09 in SW 1.0 mph 4.0 mph 81% 0.00 in CLR
03:00 40.0 °F 34.6 °F 30.10 in Calm   4.0 mph 81% 0.00 in CLR
03:15 40.0 °F 34.6 °F 30.09 in SSE 1.0 mph 4.0 mph 81% 0.00 in CLR
03:30 40.0 °F 34.6 °F 30.09 in South 1.0 mph 4.0 mph 81% 0.00 in CLR
03:45 40.1 °F 34.7 °F 30.09 in South 2.0 mph 4.0 mph 81% 0.00 in CLR
04:00 40.0 °F 34.6 °F 30.08 in SSW 3.0 mph 6.0 mph 81% 0.00 in CLR
04:15 40.0 °F 34.6 °F 30.07 in SSW 2.0 mph 8.0 mph 81% 0.00 in CLR
04:30 40.0 °F 34.6 °F 30.07 in South 1.0 mph 4.0 mph 81% 0.00 in CLR
04:45 39.9 °F 34.6 °F 30.07 in South 2.0 mph 6.0 mph 81% 0.00 in CLR
05:00 40.1 °F 34.7 °F 30.07 in SSW 1.0 mph 6.0 mph 81% 0.00 in CLR
05:15 40.2 °F 34.8 °F 30.08 in SSW 2.0 mph 6.0 mph 81% 0.00 in FEW
05:30 40.4 °F 34.7 °F 30.07 in SSW 2.0 mph 6.0 mph 80% 0.00 in FEW
05:45 40.5 °F 34.8 °F 30.08 in SSW 2.0 mph 6.0 mph 80% 0.00 in FEW
06:00 40.6 °F 34.9 °F 30.08 in SSW 2.0 mph 7.0 mph 80% 0.00 in FEW
06:15 40.7 °F 35.0 °F 30.08 in SW 2.0 mph 6.0 mph 80% 0.00 in OVC
06:30 40.8 °F 35.1 °F 30.07 in South 1.0 mph 5.0 mph 80% 0.00 in OVC
06:45 40.8 °F 35.4 °F 30.07 in SSW 2.0 mph 6.0 mph 81% 0.00 in OVC
07:00 40.8 °F 35.4 °F 30.07 in SSW 2.0 mph 6.0 mph 81% 0.00 in OVC
07:15 40.7 °F 35.3 °F 30.07 in South 1.0 mph 4.0 mph 81% 0.00 in -DZ
07:30 40.6 °F 35.6 °F 30.07 in SW 1.0 mph 6.0 mph 82% 0.00 in -DZ
07:45 40.7 °F 35.6 °F 30.07 in South 1.0 mph 5.0 mph 82% 0.00 in -DZ
08:00 40.7 °F 35.6 °F 30.07 in SSW 2.0 mph 6.0 mph 82% 0.00 in -DZ
08:15 40.8 °F 35.7 °F 30.07 in SW 1.0 mph 7.0 mph 82% 0.00 in -DZ
08:30 41.0 °F 35.9 °F 30.06 in SW 2.0 mph 7.0 mph 82% 0.00 in -DZ
08:45 41.2 °F 36.1 °F 30.06 in SSW 1.0 mph 5.0 mph 82% 0.00 in -DZ
09:00 41.4 °F 36.3 °F 30.06 in SSW 1.0 mph 6.0 mph 82% 0.00 in -DZ
09:15 41.5 °F 36.1 °F 30.06 in SW 1.0 mph 4.0 mph 81% 0.00 in BKN
09:30 41.6 °F 36.2 °F 30.05 in Calm   5.0 mph 81% 0.00 in BKN
09:45 41.7 °F 36.3 °F 30.05 in SW 1.0 mph 4.0 mph 81% 0.00 in BKN
10:00 41.7 °F 36.6 °F 30.05 in SW 1.0 mph 4.0 mph 82% 0.00 in BKN
10:15 42.2 °F 37.4 °F 30.04 in SSW 1.0 mph 5.0 mph 83% 0.00 in BKN
10:30 42.3 °F 37.2 °F 30.04 in SSW 1.0 mph 4.0 mph 82% 0.00 in BKN
10:45 42.2 °F 37.1 °F 30.03 in SSW 1.0 mph 4.0 mph 82% 0.00 in BKN
11:00 42.5 °F 37.4 °F 30.03 in South 1.0 mph 5.0 mph 82% 0.00 in BKN
11:15 42.7 °F 37.3 °F 30.03 in SSW 2.0 mph 5.0 mph 81% 0.00 in -RA
11:30 43.1 °F 37.7 °F 30.03 in SSW 1.0 mph 4.0 mph 81% 0.00 in -RA
11:45 43.4 °F 38.0 °F 30.02 in SSW 2.0 mph 4.0 mph 81% 0.00 in -RA
12:00 43.5 °F 38.1 °F 30.01 in WSW 1.0 mph 4.0 mph 81% 0.00 in -RA
12:15 44.2 °F 38.4 °F 30.00 in Calm   3.0 mph 80% 0.00 in -RA
12:30 45.5 °F 38.7 °F 29.99 in Calm   3.0 mph 77% 0.00 in -RA
12:45 46.4 °F 39.3 °F 29.98 in SW 1.0 mph 4.0 mph 76% 0.00 in -RA
13:00 48.1 °F 39.9 °F 29.97 in SSW 3.0 mph 5.0 mph 73% 0.00 in -RA
13:15 49.0 °F 40.0 °F 29.96 in WSW 1.0 mph 5.0 mph 71% 0.00 in BKN
13:30 49.4 °F 40.0 °F 29.95 in SW 1.0 mph 3.0 mph 70% 0.00 in BKN
13:45 49.6 °F 39.8 °F 29.94 in SW 1.0 mph 4.0 mph 69% 0.00 in BKN
14:00 50.3 °F 40.1 °F 29.94 in Calm   3.0 mph 68% 0.00 in BKN
14:15 50.1 °F 39.9 °F 29.94 in Calm   3.0 mph 68% 0.00 in BKN
14:30 49.8 °F 40.1 °F 29.94 in Calm   4.0 mph 69% 0.00 in BKN
14:45 49.7 °F 39.9 °F 29.94 in WNW 2.0 mph 3.0 mph 69% 0.00 in BKN
15:00 50.2 °F 40.0 °F 29.93 in Calm   3.0 mph 68% 0.00 in BKN
15:15 52.1 °F 40.7 °F 29.93 in ESE 1.0 mph 2.0 mph 65% 0.00 in SCT
15:30 53.0 °F 40.8 °F 29.93 in Calm   2.0 mph 63% 0.00 in SCT
15:45 52.4 °F 40.5 °F 29.93 in WNW 2.0 mph 3.0 mph 64% 0.00 in SCT
16:00 51.1 °F 40.5 °F 29.93 in Calm   3.0 mph 67% 0.00 in SCT
16:15 50.3 °F 39.8 °F 29.93 in Calm   2.0 mph 67% 0.00 in SCT
16:30 50.1 °F 40.3 °F 29.93 in Calm   1.0 mph 69% 0.00 in SCT
16:45 49.6 °F 40.2 °F 29.93 in Calm   1.0 mph 70% 0.00 in SCT
17:00 50.1 °F 40.7 °F 29.93 in Calm     70% 0.00 in SCT
17:15 50.2 °F 40.8 °F 29.93 in Calm   1.0 mph 70% 0.00 in SCT
17:30 49.6 °F 40.2 °F 29.92 in Calm     70% 0.00 in SCT
17:45 49.3 °F 40.3 °F 29.92 in Calm     71% 0.00 in SCT
18:00 48.5 °F 40.2 °F 29.92 in Calm     73% 0.00 in SCT
18:15 47.7 °F 39.8 °F 29.92 in Calm     74% 0.00 in SCT
18:30 47.0 °F 39.8 °F 29.93 in Calm     76% 0.00 in SCT
18:45 46.5 °F 39.3 °F 29.92 in Calm     76% 0.00 in SCT
19:00 46.3 °F 39.8 °F 29.93 in Calm     78% 0.00 in SCT
19:15 46.0 °F 39.9 °F 29.93 in Calm     79% 0.00 in SCT
19:30 45.7 °F 39.9 °F 29.93 in Calm     80% 0.00 in SCT
19:45 46.3 °F 40.1 °F 29.93 in Calm     79% 0.00 in SCT
20:00 45.2 °F 39.7 °F 29.93 in Calm     81% 0.00 in SCT
20:15 44.7 °F 39.5 °F 29.93 in Calm     82% 0.00 in CLR
20:30 44.4 °F 39.6 °F 29.93 in Calm     83% 0.00 in CLR
20:45 44.6 °F 39.7 °F 29.93 in Calm   1.0 mph 83% 0.00 in CLR
21:00 43.2 °F 38.7 °F 29.93 in Calm     84% 0.00 in CLR
21:15 42.9 °F 39.5 °F 29.92 in Calm     88% 0.00 in CLR
21:30 42.9 °F 39.3 °F 29.93 in Calm     87% 0.00 in CLR
21:45 42.8 °F 39.2 °F 29.93 in Calm     87% 0.00 in CLR
22:00 42.7 °F 39.1 °F 29.92 in Calm     87% 0.00 in CLR
22:15 42.2 °F 39.2 °F 29.92 in Calm     89% 0.00 in CLR
22:30 41.5 °F 38.5 °F 29.91 in Calm     89% 0.00 in CLR
22:45 41.3 °F 38.9 °F 29.91 in Calm     91% 0.00 in CLR
23:00 42.2 °F 39.5 °F 29.91 in Calm     90% 0.00 in CLR
23:15 41.6 °F 38.6 °F 29.91 in Calm     89% 0.00 in CLR
23:30 41.3 °F 38.6 °F 29.90 in Calm     90% 0.00 in CLR
23:45 42.0 °F 39.8 °F 29.90 in Calm   1.0 mph 92% 0.00 in CLR
TarryTown NY Weather
Compliments of Weather Underground - 1.5 mb